Morrow, Ohio
Current Conditions -  °F | °C
As of 10:54 AM on Saturday 25 Oct 2014 (Local Time) from KILN Reporting Station
Haze Haze  
Wind Chill: 57°   Ceiling: 2600
Heat Index: 57°   Visibility: 6mi
Dew Point: 50°   Wind: 15mph
Humidity: 77%   Direction: 240°WSW
Pressure: 29.98"   Gusts: NA
Location:  39.35°N, 84.13°W
Report Text: KILN 251454Z AUTO 24013KT 6SM HZ BKN026 OVC039 14/10 A2998 RMK AO2 SLP159 T01390100 56003
Loading
Personal Weather Stations






























Interactive Weather Map
Tropical Storm Tracking
New forecast layout! Learn more

10-Day Weather Forecast

Advertisements
Track Severe Weather on mobile